sensor_id;sensor_type;location;lat;lon;timestamp;temperature;humidity
17172;DHT22;8701;50.150;8.756;2023-02-19T00:02:22;10.60;99.90
17172;DHT22;8701;50.150;8.756;2023-02-19T00:06:25;10.60;99.90
17172;DHT22;8701;50.150;8.756;2023-02-19T00:10:31;10.60;99.90
17172;DHT22;8701;50.150;8.756;2023-02-19T00:14:34;10.70;99.90
17172;DHT22;8701;50.150;8.756;2023-02-19T00:18:37;10.60;99.90
17172;DHT22;8701;50.150;8.756;2023-02-19T00:22:40;10.60;99.90
17172;DHT22;8701;50.150;8.756;2023-02-19T00:26:43;10.60;99.90
17172;DHT22;8701;50.150;8.756;2023-02-19T00:30:46;10.60;99.90
17172;DHT22;8701;50.150;8.756;2023-02-19T00:34:50;10.60;99.90
17172;DHT22;8701;50.150;8.756;2023-02-19T00:38:52;10.60;99.90
17172;DHT22;8701;50.150;8.756;2023-02-19T00:42:55;10.60;99.90
17172;DHT22;8701;50.150;8.756;2023-02-19T00:46:57;10.60;99.90
17172;DHT22;8701;50.150;8.756;2023-02-19T00:51:01;10.60;99.90
17172;DHT22;8701;50.150;8.756;2023-02-19T00:55:04;10.80;99.90
17172;DHT22;8701;50.150;8.756;2023-02-19T00:59:07;10.60;99.90
17172;DHT22;8701;50.150;8.756;2023-02-19T01:03:09;10.70;99.90
17172;DHT22;8701;50.150;8.756;2023-02-19T01:07:13;10.60;99.90
17172;DHT22;8701;50.150;8.756;2023-02-19T01:11:18;10.60;99.90
17172;DHT22;8701;50.150;8.756;2023-02-19T01:15:21;10.60;99.90
17172;DHT22;8701;50.150;8.756;2023-02-19T01:19:23;10.60;99.90
17172;DHT22;8701;50.150;8.756;2023-02-19T01:23:27;10.80;99.90
17172;DHT22;8701;50.150;8.756;2023-02-19T01:27:29;10.60;99.90
17172;DHT22;8701;50.150;8.756;2023-02-19T01:31:31;10.50;99.90
17172;DHT22;8701;50.150;8.756;2023-02-19T01:35:38;10.50;99.90
17172;DHT22;8701;50.150;8.756;2023-02-19T01:39:42;10.50;99.90
17172;DHT22;8701;50.150;8.756;2023-02-19T01:44:01;10.50;99.90
17172;DHT22;8701;50.150;8.756;2023-02-19T01:48:07;10.80;99.90
17172;DHT22;8701;50.150;8.756;2023-02-19T01:52:14;10.60;99.90
17172;DHT22;8701;50.150;8.756;2023-02-19T01:56:20;10.50;99.90
17172;DHT22;8701;50.150;8.756;2023-02-19T02:00:24;10.50;99.90
17172;DHT22;8701;50.150;8.756;2023-02-19T02:04:29;10.50;99.90
17172;DHT22;8701;50.150;8.756;2023-02-19T02:08:32;10.80;99.90
17172;DHT22;8701;50.150;8.756;2023-02-19T02:12:57;10.40;99.90
17172;DHT22;8701;50.150;8.756;2023-02-19T02:17:08;10.40;99.90
17172;DHT22;8701;50.150;8.756;2023-02-19T02:21:43;10.40;99.90
17172;DHT22;8701;50.150;8.756;2023-02-19T02:25:58;10.50;99.90
17172;DHT22;8701;50.150;8.756;2023-02-19T02:30:22;10.50;99.90
17172;DHT22;8701;50.150;8.756;2023-02-19T02:34:32;10.50;99.90
17172;DHT22;8701;50.150;8.756;2023-02-19T02:38:37;10.40;99.90
17172;DHT22;8701;50.150;8.756;2023-02-19T02:42:42;10.40;99.90
17172;DHT22;8701;50.150;8.756;2023-02-19T02:46:48;10.30;99.90
17172;DHT22;8701;50.150;8.756;2023-02-19T02:50:54;10.30;99.90
17172;DHT22;8701;50.150;8.756;2023-02-19T02:54:57;10.30;99.90
17172;DHT22;8701;50.150;8.756;2023-02-19T02:59:09;10.30;99.90
17172;DHT22;8701;50.150;8.756;2023-02-19T03:03:16;10.20;99.90
17172;DHT22;8701;50.150;8.756;2023-02-19T03:07:19;10.20;99.90
17172;DHT22;8701;50.150;8.756;2023-02-19T03:11:22;10.20;99.90
17172;DHT22;8701;50.150;8.756;2023-02-19T03:15:44;10.00;99.90
17172;DHT22;8701;50.150;8.756;2023-02-19T03:20:11;10.20;99.90
17172;DHT22;8701;50.150;8.756;2023-02-19T03:24:18;10.20;99.90
17172;DHT22;8701;50.150;8.756;2023-02-19T03:28:39;10.20;99.90
17172;DHT22;8701;50.150;8.756;2023-02-19T03:33:13;10.20;99.90
17172;DHT22;8701;50.150;8.756;2023-02-19T03:37:20;10.30;99.90
17172;DHT22;8701;50.150;8.756;2023-02-19T03:41:32;10.30;99.90
17172;DHT22;8701;50.150;8.756;2023-02-19T03:45:44;10.30;99.90
17172;DHT22;8701;50.150;8.756;2023-02-19T03:49:50;10.30;99.90
17172;DHT22;8701;50.150;8.756;2023-02-19T03:54:05;10.30;99.90
17172;DHT22;8701;50.150;8.756;2023-02-19T03:58:16;10.30;99.90
17172;DHT22;8701;50.150;8.756;2023-02-19T04:02:27;10.30;99.90
17172;DHT22;8701;50.150;8.756;2023-02-19T04:06:36;10.30;99.90
17172;DHT22;8701;50.150;8.756;2023-02-19T04:10:43;10.30;99.90
17172;DHT22;8701;50.150;8.756;2023-02-19T04:14:51;10.30;99.90
17172;DHT22;8701;50.150;8.756;2023-02-19T04:18:57;10.30;99.90
17172;DHT22;8701;50.150;8.756;2023-02-19T04:23:00;10.20;99.90
17172;DHT22;8701;50.150;8.756;2023-02-19T04:27:04;10.30;99.90
17172;DHT22;8701;50.150;8.756;2023-02-19T04:31:07;10.10;99.90
17172;DHT22;8701;50.150;8.756;2023-02-19T04:35:10;10.20;99.90
17172;DHT22;8701;50.150;8.756;2023-02-19T04:39:12;10.10;99.90
17172;DHT22;8701;50.150;8.756;2023-02-19T04:43:16;10.10;99.90
17172;DHT22;8701;50.150;8.756;2023-02-19T04:47:20;10.10;99.90
17172;DHT22;8701;50.150;8.756;2023-02-19T04:51:23;10.00;99.90
17172;DHT22;8701;50.150;8.756;2023-02-19T04:55:25;10.10;99.90
17172;DHT22;8701;50.150;8.756;2023-02-19T04:59:29;10.10;99.90
17172;DHT22;8701;50.150;8.756;2023-02-19T05:03:32;10.20;99.90
17172;DHT22;8701;50.150;8.756;2023-02-19T05:07:35;10.10;99.90
17172;DHT22;8701;50.150;8.756;2023-02-19T05:11:37;10.20;99.90
17172;DHT22;8701;50.150;8.756;2023-02-19T05:15:41;10.20;99.90
17172;DHT22;8701;50.150;8.756;2023-02-19T05:19:43;10.20;99.90
17172;DHT22;8701;50.150;8.756;2023-02-19T05:23:46;10.30;99.90
17172;DHT22;8701;50.150;8.756;2023-02-19T05:27:48;10.30;99.90
17172;DHT22;8701;50.150;8.756;2023-02-19T05:32:12;10.30;99.90
17172;DHT22;8701;50.150;8.756;2023-02-19T05:36:14;10.30;99.90
17172;DHT22;8701;50.150;8.756;2023-02-19T05:40:16;10.30;99.90
17172;DHT22;8701;50.150;8.756;2023-02-19T05:44:19;10.30;99.90
17172;DHT22;8701;50.150;8.756;2023-02-19T05:48:22;10.30;99.90
17172;DHT22;8701;50.150;8.756;2023-02-19T05:52:25;10.20;99.90
17172;DHT22;8701;50.150;8.756;2023-02-19T05:56:30;10.10;99.90
17172;DHT22;8701;50.150;8.756;2023-02-19T06:00:33;10.20;99.90
17172;DHT22;8701;50.150;8.756;2023-02-19T06:04:36;10.20;99.90
17172;DHT22;8701;50.150;8.756;2023-02-19T06:08:39;10.20;99.90
17172;DHT22;8701;50.150;8.756;2023-02-19T06:12:41;10.40;99.90
17172;DHT22;8701;50.150;8.756;2023-02-19T06:16:44;10.10;99.90
17172;DHT22;8701;50.150;8.756;2023-02-19T06:20:47;10.20;99.90
17172;DHT22;8701;50.150;8.756;2023-02-19T06:24:50;10.40;99.90
17172;DHT22;8701;50.150;8.756;2023-02-19T06:28:52;10.20;99.90
17172;DHT22;8701;50.150;8.756;2023-02-19T06:32:55;10.20;99.90
17172;DHT22;8701;50.150;8.756;2023-02-19T06:36:59;10.20;99.90
17172;DHT22;8701;50.150;8.756;2023-02-19T06:41:02;10.20;99.90
17172;DHT22;8701;50.150;8.756;2023-02-19T06:45:05;10.20;99.90
17172;DHT22;8701;50.150;8.756;2023-02-19T06:49:07;10.30;99.90
17172;DHT22;8701;50.150;8.756;2023-02-19T06:53:11;10.30;99.90
17172;DHT22;8701;50.150;8.756;2023-02-19T06:57:13;10.20;99.90
17172;DHT22;8701;50.150;8.756;2023-02-19T07:01:16;10.20;99.90
17172;DHT22;8701;50.150;8.756;2023-02-19T07:05:18;10.20;99.90
17172;DHT22;8701;50.150;8.756;2023-02-19T07:09:22;10.30;99.90
17172;DHT22;8701;50.150;8.756;2023-02-19T07:13:26;10.10;99.90
17172;DHT22;8701;50.150;8.756;2023-02-19T07:17:28;10.10;99.90
17172;DHT22;8701;50.150;8.756;2023-02-19T07:21:31;10.10;99.90
17172;DHT22;8701;50.150;8.756;2023-02-19T07:25:39;10.30;99.90
17172;DHT22;8701;50.150;8.756;2023-02-19T07:29:41;10.10;99.90
17172;DHT22;8701;50.150;8.756;2023-02-19T07:33:44;10.10;99.90
17172;DHT22;8701;50.150;8.756;2023-02-19T07:37:46;10.00;99.90
17172;DHT22;8701;50.150;8.756;2023-02-19T07:41:50;10.20;99.90
17172;DHT22;8701;50.150;8.756;2023-02-19T07:46:02;10.20;99.90
17172;DHT22;8701;50.150;8.756;2023-02-19T07:50:05;10.20;99.90
17172;DHT22;8701;50.150;8.756;2023-02-19T07:54:08;10.20;99.90
17172;DHT22;8701;50.150;8.756;2023-02-19T07:58:20;10.20;99.90
17172;DHT22;8701;50.150;8.756;2023-02-19T08:02:23;10.20;99.90
17172;DHT22;8701;50.150;8.756;2023-02-19T08:06:42;10.20;99.90
17172;DHT22;8701;50.150;8.756;2023-02-19T08:10:45;10.20;99.90
17172;DHT22;8701;50.150;8.756;2023-02-19T08:15:11;10.20;99.90
17172;DHT22;8701;50.150;8.756;2023-02-19T08:19:18;10.20;99.90
17172;DHT22;8701;50.150;8.756;2023-02-19T08:23:21;10.30;99.90
17172;DHT22;8701;50.150;8.756;2023-02-19T08:27:24;10.30;99.90
17172;DHT22;8701;50.150;8.756;2023-02-19T08:31:35;10.30;99.90
17172;DHT22;8701;50.150;8.756;2023-02-19T08:35:47;10.30;99.90
17172;DHT22;8701;50.150;8.756;2023-02-19T08:39:50;10.30;99.90
17172;DHT22;8701;50.150;8.756;2023-02-19T08:43:52;10.20;99.90
17172;DHT22;8701;50.150;8.756;2023-02-19T08:48:11;10.20;99.90
17172;DHT22;8701;50.150;8.756;2023-02-19T08:52:24;10.20;99.90
17172;DHT22;8701;50.150;8.756;2023-02-19T08:56:28;10.20;99.90
17172;DHT22;8701;50.150;8.756;2023-02-19T09:00:38;10.20;99.90
17172;DHT22;8701;50.150;8.756;2023-02-19T09:04:48;10.30;99.90
17172;DHT22;8701;50.150;8.756;2023-02-19T09:09:14;10.40;99.90
17172;DHT22;8701;50.150;8.756;2023-02-19T09:13:17;10.40;99.90
17172;DHT22;8701;50.150;8.756;2023-02-19T09:17:21;10.50;99.90
17172;DHT22;8701;50.150;8.756;2023-02-19T09:21:25;10.60;99.90
17172;DHT22;8701;50.150;8.756;2023-02-19T09:25:27;10.90;99.90
17172;DHT22;8701;50.150;8.756;2023-02-19T09:29:30;10.70;99.90
17172;DHT22;8701;50.150;8.756;2023-02-19T09:33:34;10.70;99.90
17172;DHT22;8701;50.150;8.756;2023-02-19T09:37:38;10.70;99.90
17172;DHT22;8701;50.150;8.756;2023-02-19T09:41:48;10.70;99.90
17172;DHT22;8701;50.150;8.756;2023-02-19T09:45:57;10.90;99.90
17172;DHT22;8701;50.150;8.756;2023-02-19T09:50:05;10.70;99.90
17172;DHT22;8701;50.150;8.756;2023-02-19T09:54:16;10.60;99.90
17172;DHT22;8701;50.150;8.756;2023-02-19T09:58:24;10.60;99.90
17172;DHT22;8701;50.150;8.756;2023-02-19T10:02:30;10.40;99.90
17172;DHT22;8701;50.150;8.756;2023-02-19T10:06:32;10.80;99.90
17172;DHT22;8701;50.150;8.756;2023-02-19T10:10:38;10.60;99.90
17172;DHT22;8701;50.150;8.756;2023-02-19T10:14:44;10.70;99.90
17172;DHT22;8701;50.150;8.756;2023-02-19T10:18:48;10.70;99.90
17172;DHT22;8701;50.150;8.756;2023-02-19T10:22:56;10.60;99.90
17172;DHT22;8701;50.150;8.756;2023-02-19T10:27:01;10.80;99.90
17172;DHT22;8701;50.150;8.756;2023-02-19T10:31:09;10.90;99.90
17172;DHT22;8701;50.150;8.756;2023-02-19T10:35:14;10.70;99.90
17172;DHT22;8701;50.150;8.756;2023-02-19T10:39:37;10.70;99.90
17172;DHT22;8701;50.150;8.756;2023-02-19T10:43:51;10.80;99.90
17172;DHT22;8701;50.150;8.756;2023-02-19T10:47:56;10.90;99.90
17172;DHT22;8701;50.150;8.756;2023-02-19T10:52:03;11.00;99.90
17172;DHT22;8701;50.150;8.756;2023-02-19T10:56:23;11.10;99.90
17172;DHT22;8701;50.150;8.756;2023-02-19T11:00:45;11.10;99.90
17172;DHT22;8701;50.150;8.756;2023-02-19T11:05:03;11.00;99.90
17172;DHT22;8701;50.150;8.756;2023-02-19T11:09:23;10.90;99.90
17172;DHT22;8701;50.150;8.756;2023-02-19T11:13:30;11.00;99.90
17172;DHT22;8701;50.150;8.756;2023-02-19T11:17:34;11.20;99.90
17172;DHT22;8701;50.150;8.756;2023-02-19T11:21:37;11.30;99.90
17172;DHT22;8701;50.150;8.756;2023-02-19T11:25:44;11.60;99.90
17172;DHT22;8701;50.150;8.756;2023-02-19T11:29:47;11.80;99.90
17172;DHT22;8701;50.150;8.756;2023-02-19T11:33:54;11.90;99.90
17172;DHT22;8701;50.150;8.756;2023-02-19T11:37:58;12.10;99.90
17172;DHT22;8701;50.150;8.756;2023-02-19T11:42:24;12.80;99.90
17172;DHT22;8701;50.150;8.756;2023-02-19T11:46:36;13.10;99.90
17172;DHT22;8701;50.150;8.756;2023-02-19T11:50:51;13.00;99.90
17172;DHT22;8701;50.150;8.756;2023-02-19T11:55:05;13.90;99.90
17172;DHT22;8701;50.150;8.756;2023-02-19T11:59:17;14.80;99.90
17172;DHT22;8701;50.150;8.756;2023-02-19T12:03:48;14.70;99.90
17172;DHT22;8701;50.150;8.756;2023-02-19T12:08:19;14.30;99.90
17172;DHT22;8701;50.150;8.756;2023-02-19T12:12:37;13.70;99.90
17172;DHT22;8701;50.150;8.756;2023-02-19T12:16:46;13.90;99.90
17172;DHT22;8701;50.150;8.756;2023-02-19T12:21:02;14.60;99.90
17172;DHT22;8701;50.150;8.756;2023-02-19T12:25:21;15.90;99.90
17172;DHT22;8701;50.150;8.756;2023-02-19T12:29:47;16.30;99.90
17172;DHT22;8701;50.150;8.756;2023-02-19T12:34:06;16.10;99.90
17172;DHT22;8701;50.150;8.756;2023-02-19T12:38:21;14.80;99.90
17172;DHT22;8701;50.150;8.756;2023-02-19T12:42:40;14.10;99.90
17172;DHT22;8701;50.150;8.756;2023-02-19T12:46:48;13.70;99.90
17172;DHT22;8701;50.150;8.756;2023-02-19T12:50:57;13.40;99.90
17172;DHT22;8701;50.150;8.756;2023-02-19T12:55:15;13.30;99.90
17172;DHT22;8701;50.150;8.756;2023-02-19T12:59:25;13.20;99.90
17172;DHT22;8701;50.150;8.756;2023-02-19T13:03:33;12.80;99.90
17172;DHT22;8701;50.150;8.756;2023-02-19T13:07:42;12.90;99.90
17172;DHT22;8701;50.150;8.756;2023-02-19T13:11:48;14.00;99.90
17172;DHT22;8701;50.150;8.756;2023-02-19T13:15:57;14.20;99.90
17172;DHT22;8701;50.150;8.756;2023-02-19T13:20:12;14.50;99.90
17172;DHT22;8701;50.150;8.756;2023-02-19T13:24:21;15.20;99.90
17172;DHT22;8701;50.150;8.756;2023-02-19T13:28:39;15.00;99.90
17172;DHT22;8701;50.150;8.756;2023-02-19T13:32:57;14.30;99.90
17172;DHT22;8701;50.150;8.756;2023-02-19T13:37:02;14.00;99.90
17172;DHT22;8701;50.150;8.756;2023-02-19T13:41:06;13.80;99.90
17172;DHT22;8701;50.150;8.756;2023-02-19T13:45:26;13.70;99.90
17172;DHT22;8701;50.150;8.756;2023-02-19T13:49:41;13.90;99.90
17172;DHT22;8701;50.150;8.756;2023-02-19T13:53:58;13.90;99.90
17172;DHT22;8701;50.150;8.756;2023-02-19T13:58:37;14.20;99.90
17172;DHT22;8701;50.150;8.756;2023-02-19T14:02:48;15.30;99.90
17172;DHT22;8701;50.150;8.756;2023-02-19T14:07:34;16.80;99.90
17172;DHT22;8701;50.150;8.756;2023-02-19T14:12:01;16.30;99.90
17172;DHT22;8701;50.150;8.756;2023-02-19T14:16:29;15.40;99.90
17172;DHT22;8701;50.150;8.756;2023-02-19T14:20:53;14.70;99.90
17172;DHT22;8701;50.150;8.756;2023-02-19T14:25:16;14.20;99.90
17172;DHT22;8701;50.150;8.756;2023-02-19T14:29:20;13.80;99.90
17172;DHT22;8701;50.150;8.756;2023-02-19T14:33:28;13.60;99.90
17172;DHT22;8701;50.150;8.756;2023-02-19T14:37:32;13.50;99.90
17172;DHT22;8701;50.150;8.756;2023-02-19T14:41:37;13.50;99.90
17172;DHT22;8701;50.150;8.756;2023-02-19T14:45:42;13.30;99.90
17172;DHT22;8701;50.150;8.756;2023-02-19T14:49:48;13.30;99.90
17172;DHT22;8701;50.150;8.756;2023-02-19T14:53:52;13.30;99.90
17172;DHT22;8701;50.150;8.756;2023-02-19T14:57:57;13.40;99.90
17172;DHT22;8701;50.150;8.756;2023-02-19T15:02:02;13.30;99.90
17172;DHT22;8701;50.150;8.756;2023-02-19T15:06:10;13.40;99.90
17172;DHT22;8701;50.150;8.756;2023-02-19T15:10:15;13.20;99.90
17172;DHT22;8701;50.150;8.756;2023-02-19T15:14:21;13.40;99.90
17172;DHT22;8701;50.150;8.756;2023-02-19T15:18:29;13.30;99.90
17172;DHT22;8701;50.150;8.756;2023-02-19T15:22:38;13.20;99.90
17172;DHT22;8701;50.150;8.756;2023-02-19T15:26:46;13.20;99.90
17172;DHT22;8701;50.150;8.756;2023-02-19T15:30:49;13.20;99.90
17172;DHT22;8701;50.150;8.756;2023-02-19T15:34:55;13.00;99.90
17172;DHT22;8701;50.150;8.756;2023-02-19T15:39:01;12.80;99.90
17172;DHT22;8701;50.150;8.756;2023-02-19T15:43:03;12.60;99.90
17172;DHT22;8701;50.150;8.756;2023-02-19T15:47:11;12.50;99.90
17172;DHT22;8701;50.150;8.756;2023-02-19T15:51:17;12.40;99.90
17172;DHT22;8701;50.150;8.756;2023-02-19T15:55:29;12.30;99.90
17172;DHT22;8701;50.150;8.756;2023-02-19T15:59:39;12.30;99.90
17172;DHT22;8701;50.150;8.756;2023-02-19T16:03:45;12.20;99.90
17172;DHT22;8701;50.150;8.756;2023-02-19T16:08:14;12.20;99.90
17172;DHT22;8701;50.150;8.756;2023-02-19T16:12:21;12.10;99.90
17172;DHT22;8701;50.150;8.756;2023-02-19T16:16:30;12.00;99.90
17172;DHT22;8701;50.150;8.756;2023-02-19T16:20:36;11.90;99.90
17172;DHT22;8701;50.150;8.756;2023-02-19T16:24:41;12.00;99.90
17172;DHT22;8701;50.150;8.756;2023-02-19T16:28:51;11.80;99.90
17172;DHT22;8701;50.150;8.756;2023-02-19T16:33:20;11.80;99.90
17172;DHT22;8701;50.150;8.756;2023-02-19T16:37:31;11.80;99.90
17172;DHT22;8701;50.150;8.756;2023-02-19T16:42:09;11.70;99.90
17172;DHT22;8701;50.150;8.756;2023-02-19T16:46:13;11.70;99.90
17172;DHT22;8701;50.150;8.756;2023-02-19T16:50:19;11.70;99.90
17172;DHT22;8701;50.150;8.756;2023-02-19T16:54:22;11.70;99.90
17172;DHT22;8701;50.150;8.756;2023-02-19T16:58:25;11.60;99.90
17172;DHT22;8701;50.150;8.756;2023-02-19T17:02:29;11.60;99.90
17172;DHT22;8701;50.150;8.756;2023-02-19T17:06:34;11.60;99.90
17172;DHT22;8701;50.150;8.756;2023-02-19T17:10:37;11.60;99.90
17172;DHT22;8701;50.150;8.756;2023-02-19T17:14:40;11.50;99.90
17172;DHT22;8701;50.150;8.756;2023-02-19T17:18:44;11.50;99.90
17172;DHT22;8701;50.150;8.756;2023-02-19T17:22:46;11.50;99.90
17172;DHT22;8701;50.150;8.756;2023-02-19T17:26:49;11.70;99.90
17172;DHT22;8701;50.150;8.756;2023-02-19T17:30:51;11.40;99.90
17172;DHT22;8701;50.150;8.756;2023-02-19T17:34:55;11.50;99.90
17172;DHT22;8701;50.150;8.756;2023-02-19T17:38:59;11.40;99.90
17172;DHT22;8701;50.150;8.756;2023-02-19T17:43:02;11.30;99.90
17172;DHT22;8701;50.150;8.756;2023-02-19T17:47:04;11.20;99.90
17172;DHT22;8701;50.150;8.756;2023-02-19T17:51:09;11.30;99.90
17172;DHT22;8701;50.150;8.756;2023-02-19T17:55:14;11.20;99.90
17172;DHT22;8701;50.150;8.756;2023-02-19T17:59:19;11.30;99.90
17172;DHT22;8701;50.150;8.756;2023-02-19T18:03:21;11.20;99.90
17172;DHT22;8701;50.150;8.756;2023-02-19T18:07:27;11.10;99.90
17172;DHT22;8701;50.150;8.756;2023-02-19T18:11:29;11.10;99.90
17172;DHT22;8701;50.150;8.756;2023-02-19T18:15:32;11.10;99.90
17172;DHT22;8701;50.150;8.756;2023-02-19T18:19:34;11.10;99.90
17172;DHT22;8701;50.150;8.756;2023-02-19T18:23:38;11.10;99.90
17172;DHT22;8701;50.150;8.756;2023-02-19T18:27:40;10.80;99.90
17172;DHT22;8701;50.150;8.756;2023-02-19T18:31:43;11.00;99.90
17172;DHT22;8701;50.150;8.756;2023-02-19T18:35:45;10.90;99.90
17172;DHT22;8701;50.150;8.756;2023-02-19T18:39:57;10.90;99.90
17172;DHT22;8701;50.150;8.756;2023-02-19T18:43:59;10.70;99.90
17172;DHT22;8701;50.150;8.756;2023-02-19T18:48:03;10.70;99.90
17172;DHT22;8701;50.150;8.756;2023-02-19T18:52:05;10.70;99.90
17172;DHT22;8701;50.150;8.756;2023-02-19T18:56:09;10.90;99.90
17172;DHT22;8701;50.150;8.756;2023-02-19T19:00:17;10.70;99.90
17172;DHT22;8701;50.150;8.756;2023-02-19T19:04:21;10.70;99.90
17172;DHT22;8701;50.150;8.756;2023-02-19T19:08:32;10.70;99.90
17172;DHT22;8701;50.150;8.756;2023-02-19T19:12:35;10.70;99.90
17172;DHT22;8701;50.150;8.756;2023-02-19T19:16:45;10.60;99.90
17172;DHT22;8701;50.150;8.756;2023-02-19T19:20:47;10.60;99.90
17172;DHT22;8701;50.150;8.756;2023-02-19T19:24:49;10.60;99.90
17172;DHT22;8701;50.150;8.756;2023-02-19T19:28:53;10.50;99.90
17172;DHT22;8701;50.150;8.756;2023-02-19T19:32:55;10.40;99.90
17172;DHT22;8701;50.150;8.756;2023-02-19T19:36:57;10.50;99.90
17172;DHT22;8701;50.150;8.756;2023-02-19T19:41:00;10.60;99.90
17172;DHT22;8701;50.150;8.756;2023-02-19T19:45:04;10.60;99.90
17172;DHT22;8701;50.150;8.756;2023-02-19T19:49:07;10.60;99.90
17172;DHT22;8701;50.150;8.756;2023-02-19T19:53:09;10.60;99.90
17172;DHT22;8701;50.150;8.756;2023-02-19T19:57:11;10.60;99.90
17172;DHT22;8701;50.150;8.756;2023-02-19T20:01:15;10.60;99.90
17172;DHT22;8701;50.150;8.756;2023-02-19T20:05:20;10.70;99.90
17172;DHT22;8701;50.150;8.756;2023-02-19T20:09:23;10.50;99.90
17172;DHT22;8701;50.150;8.756;2023-02-19T20:13:25;10.40;99.90
17172;DHT22;8701;50.150;8.756;2023-02-19T20:17:31;10.70;99.90
17172;DHT22;8701;50.150;8.756;2023-02-19T20:21:34;10.40;99.90
17172;DHT22;8701;50.150;8.756;2023-02-19T20:25:36;10.50;99.90
17172;DHT22;8701;50.150;8.756;2023-02-19T20:29:38;10.30;99.90
17172;DHT22;8701;50.150;8.756;2023-02-19T20:33:42;10.30;99.90
17172;DHT22;8701;50.150;8.756;2023-02-19T20:37:45;10.30;99.90
17172;DHT22;8701;50.150;8.756;2023-02-19T20:41:50;10.20;99.90
17172;DHT22;8701;50.150;8.756;2023-02-19T20:45:52;10.20;99.90
17172;DHT22;8701;50.150;8.756;2023-02-19T20:49:56;10.10;99.90
17172;DHT22;8701;50.150;8.756;2023-02-19T20:53:58;10.20;99.90
17172;DHT22;8701;50.150;8.756;2023-02-19T20:58:01;10.20;99.90
17172;DHT22;8701;50.150;8.756;2023-02-19T21:02:05;10.20;99.90
17172;DHT22;8701;50.150;8.756;2023-02-19T21:06:11;10.20;99.90
17172;DHT22;8701;50.150;8.756;2023-02-19T21:10:13;10.20;99.90
17172;DHT22;8701;50.150;8.756;2023-02-19T21:14:18;10.30;99.90
17172;DHT22;8701;50.150;8.756;2023-02-19T21:18:20;10.20;99.90
17172;DHT22;8701;50.150;8.756;2023-02-19T21:22:26;10.20;99.90
17172;DHT22;8701;50.150;8.756;2023-02-19T21:26:34;10.20;99.90
17172;DHT22;8701;50.150;8.756;2023-02-19T21:30:36;10.10;99.90
17172;DHT22;8701;50.150;8.756;2023-02-19T21:34:42;10.30;99.90
17172;DHT22;8701;50.150;8.756;2023-02-19T21:38:45;10.10;99.90
17172;DHT22;8701;50.150;8.756;2023-02-19T21:42:50;10.10;99.90
17172;DHT22;8701;50.150;8.756;2023-02-19T21:46:52;10.10;99.90
17172;DHT22;8701;50.150;8.756;2023-02-19T21:50:57;10.10;99.90
17172;DHT22;8701;50.150;8.756;2023-02-19T21:55:22;9.90;99.90
17172;DHT22;8701;50.150;8.756;2023-02-19T21:59:30;10.10;99.90
17172;DHT22;8701;50.150;8.756;2023-02-19T22:03:32;10.00;99.90
17172;DHT22;8701;50.150;8.756;2023-02-19T22:07:35;10.30;99.90
17172;DHT22;8701;50.150;8.756;2023-02-19T22:11:39;9.90;99.90
17172;DHT22;8701;50.150;8.756;2023-02-19T22:15:43;10.00;99.90
17172;DHT22;8701;50.150;8.756;2023-02-19T22:19:45;10.00;99.90
17172;DHT22;8701;50.150;8.756;2023-02-19T22:23:49;9.90;99.90
17172;DHT22;8701;50.150;8.756;2023-02-19T22:27:53;9.90;99.90
17172;DHT22;8701;50.150;8.756;2023-02-19T22:31:56;9.80;99.90
17172;DHT22;8701;50.150;8.756;2023-02-19T22:35:58;10.00;99.90
17172;DHT22;8701;50.150;8.756;2023-02-19T22:40:01;9.80;99.90
17172;DHT22;8701;50.150;8.756;2023-02-19T22:44:05;9.80;99.90
17172;DHT22;8701;50.150;8.756;2023-02-19T22:48:07;9.80;99.90
17172;DHT22;8701;50.150;8.756;2023-02-19T22:52:09;9.80;99.90
17172;DHT22;8701;50.150;8.756;2023-02-19T22:56:13;9.80;99.90
17172;DHT22;8701;50.150;8.756;2023-02-19T23:00:19;9.80;99.90
17172;DHT22;8701;50.150;8.756;2023-02-19T23:04:23;9.90;99.90
17172;DHT22;8701;50.150;8.756;2023-02-19T23:08:57;9.80;99.90
17172;DHT22;8701;50.150;8.756;2023-02-19T23:13:02;9.80;99.90
17172;DHT22;8701;50.150;8.756;2023-02-19T23:17:07;9.80;99.90
17172;DHT22;8701;50.150;8.756;2023-02-19T23:21:09;9.70;99.90
17172;DHT22;8701;50.150;8.756;2023-02-19T23:25:40;9.70;99.90
17172;DHT22;8701;50.150;8.756;2023-02-19T23:29:42;9.60;99.90
17172;DHT22;8701;50.150;8.756;2023-02-19T23:33:46;9.50;99.90
17172;DHT22;8701;50.150;8.756;2023-02-19T23:37:49;9.30;99.90
17172;DHT22;8701;50.150;8.756;2023-02-19T23:41:52;9.60;99.90
17172;DHT22;8701;50.150;8.756;2023-02-19T23:45:55;9.30;99.90
17172;DHT22;8701;50.150;8.756;2023-02-19T23:49:59;9.30;99.90
17172;DHT22;8701;50.150;8.756;2023-02-19T23:54:01;9.50;99.90
17172;DHT22;8701;50.150;8.756;2023-02-19T23:58:04;9.20;99.90
